Time;durP1;ratioP1;P1;durP2;ratioP2;P2;SDS_P1;SDS_P2;PMS_P1;PMS_P2;Temp;Humidity;BMP_temperature;BMP_pressure;BME280_temperature;BME280_humidity;BME280_pressure;Samples;Min_cycle;Max_cycle;Signal;HPM_P1;HPM_P2
2022/09/15 00:02:09;;;;;;;;;;;;;;;24.59;37.94;100212.61;104486;1309;61304;-85
2022/09/15 00:04:34;;;;;;;;;;;;;;;24.59;37.93;100209.02;104546;1308;61278;-85
2022/09/15 00:07:00;;;;;;;;;;;;;;;24.59;37.95;100210.30;104497;1308;61331;-84
2022/09/15 00:09:26;;;;;;;;;;;;;;;24.58;37.95;100209.96;104553;1308;62575;-86
2022/09/15 00:11:51;;;;;;;;;;;;;;;24.59;38.01;100212.60;104499;1309;61402;-86
2022/09/15 00:14:17;;;;;;;;;;;;;;;24.58;37.95;100210.68;104546;1308;61339;-86
2022/09/15 00:16:42;;;;;;;;;;;;;;;24.58;38.06;100206.02;104544;1308;61315;-84
2022/09/15 00:19:08;;;;;;;;;;;;;;;24.58;38.07;100210.16;104449;1309;72810;-85
2022/09/15 00:21:34;;;;;;;;;;;;;;;24.58;38.01;100212.11;104565;1308;61275;-82
2022/09/15 00:23:59;;;;;;;;;;;;;;;24.58;38.10;100213.94;104639;1308;61279;-85
2022/09/15 00:26:26;;;;;;;;;;;;;;;24.58;38.09;100212.85;104486;1309;61277;-85
2022/09/15 00:28:51;;;;;;;;;;;;;;;24.58;38.13;100214.27;104489;1309;61303;-85
2022/09/15 00:31:18;;;;;;;;;;;;;;;24.59;38.13;100213.35;104503;1309;61237;-85
2022/09/15 00:33:47;;;;;;;;;;;;;;;24.58;38.13;100214.45;104543;1309;61264;-85
2022/09/15 00:36:14;;;;;;;;;;;;;;;24.58;38.10;100206.02;104510;1309;61181;-84
2022/09/15 00:38:39;;;;;;;;;;;;;;;24.58;38.17;100207.08;104500;1309;61388;-85
2022/09/15 00:41:05;;;;;;;;;;;;;;;24.58;38.26;100202.75;104461;1309;61287;-85
2022/09/15 00:43:49;;;;;;;;;;;;;;;24.58;38.17;100200.60;104507;1309;61285;-85
2022/09/15 00:46:43;;;;;;;;;;;;;;;24.58;38.18;100207.29;104524;1308;61338;-84
2022/09/15 00:49:13;;;;;;;;;;;;;;;24.58;38.23;100203.34;104476;1309;73028;-86
2022/09/15 00:51:40;;;;;;;;;;;;;;;24.58;38.30;100201.87;104436;1311;74825;-85
2022/09/15 00:54:12;;;;;;;;;;;;;;;24.58;38.24;100196.85;104485;1309;61220;-84
2022/09/15 00:56:37;;;;;;;;;;;;;;;24.58;38.27;100196.84;104466;1309;61889;-84
2022/09/15 00:59:04;;;;;;;;;;;;;;;24.58;38.29;100196.84;104516;1308;61404;-86
2022/09/15 01:01:29;;;;;;;;;;;;;;;24.59;38.30;100196.79;104548;1308;61600;-84
2022/09/15 01:03:55;;;;;;;;;;;;;;;24.58;38.31;100193.60;104462;1309;61460;-85
2022/09/15 01:06:26;;;;;;;;;;;;;;;24.58;38.28;100193.06;104455;1308;61470;-86
2022/09/15 01:09:11;;;;;;;;;;;;;;;24.58;38.32;100190.56;104505;1309;73275;-88
2022/09/15 01:11:37;;;;;;;;;;;;;;;24.58;38.44;100194.85;104471;1307;75878;-85
2022/09/15 01:14:03;;;;;;;;;;;;;;;24.58;38.42;100197.40;104468;1309;61292;-87
2022/09/15 01:16:40;;;;;;;;;;;;;;;24.58;38.35;100197.06;104462;1308;59280;-83
2022/09/15 01:19:09;;;;;;;;;;;;;;;24.58;38.37;100195.65;104541;1308;72058;-84
2022/09/15 01:21:46;;;;;;;;;;;;;;;24.58;38.38;100193.25;104607;1309;74812;-84
2022/09/15 01:24:31;;;;;;;;;;;;;;;24.58;38.46;100192.92;104550;1308;61240;-85
2022/09/15 01:27:03;;;;;;;;;;;;;;;24.57;38.41;100187.71;104452;1308;61582;-86
2022/09/15 01:29:51;;;;;;;;;;;;;;;24.57;38.47;100184.52;104453;1308;74434;-84
2022/09/15 01:35:22;;;;;;;;;;;;;;;24.57;38.52;100187.05;104626;1308;61147;-87
2022/09/15 01:38:11;;;;;;;;;;;;;;;24.57;38.59;100187.23;104617;1309;61529;-85
2022/09/15 01:40:38;;;;;;;;;;;;;;;24.57;38.60;100188.36;104337;1309;73780;-85
2022/09/15 01:43:03;;;;;;;;;;;;;;;24.57;38.53;100188.33;104418;1308;74821;-84
2022/09/15 01:45:30;;;;;;;;;;;;;;;24.57;38.54;100189.02;104475;1309;61390;-84
2022/09/15 01:47:56;;;;;;;;;;;;;;;24.57;38.64;100191.19;104520;1309;61284;-85
2022/09/15 01:50:22;;;;;;;;;;;;;;;24.57;38.56;100189.06;104500;1308;61297;-87
2022/09/15 01:52:48;;;;;;;;;;;;;;;24.56;38.50;100181.37;104464;1309;61179;-85
2022/09/15 01:55:19;;;;;;;;;;;;;;;24.57;38.50;100182.45;104506;1309;61301;-85
2022/09/15 01:57:45;;;;;;;;;;;;;;;24.56;38.60;100182.31;104290;1309;61340;-86
2022/09/15 02:00:11;;;;;;;;;;;;;;;24.56;38.68;100176.16;104587;1309;61194;-86
2022/09/15 02:02:59;;;;;;;;;;;;;;;24.56;38.63;100170.06;104519;1309;61300;-85
2022/09/15 02:05:24;;;;;;;;;;;;;;;24.56;38.61;100169.77;104534;1308;61258;-84
2022/09/15 02:07:50;;;;;;;;;;;;;;;24.56;38.59;100168.98;104601;1308;61339;-86
2022/09/15 02:10:15;;;;;;;;;;;;;;;24.56;38.61;100166.13;104594;1308;61461;-84
2022/09/15 02:12:44;;;;;;;;;;;;;;;24.56;38.62;100161.83;104445;1309;61343;-86
2022/09/15 02:15:09;;;;;;;;;;;;;;;24.56;38.63;100161.46;104623;1309;61381;-87
2022/09/15 02:17:37;;;;;;;;;;;;;;;24.55;38.59;100157.89;104611;1309;61397;-85
2022/09/15 02:20:15;;;;;;;;;;;;;;;24.56;38.72;100158.96;104451;1308;61195;-87
2022/09/15 02:22:44;;;;;;;;;;;;;;;24.55;38.73;100154.31;104603;1309;74895;-89
2022/09/15 02:25:16;;;;;;;;;;;;;;;24.55;38.66;100153.77;104612;1309;61147;-85
2022/09/15 02:27:43;;;;;;;;;;;;;;;24.55;38.71;100153.05;104619;1308;61304;-85
2022/09/15 02:30:10;;;;;;;;;;;;;;;24.55;38.74;100150.39;104521;1308;73690;-86
2022/09/15 02:32:36;;;;;;;;;;;;;;;24.55;38.77;100147.19;104619;1307;74628;-85
2022/09/15 02:35:05;;;;;;;;;;;;;;;24.55;38.80;100145.70;104451;1309;61279;-84
2022/09/15 02:37:30;;;;;;;;;;;;;;;24.55;38.80;100139.96;104412;1309;61387;-86
2022/09/15 02:39:59;;;;;;;;;;;;;;;24.55;38.80;100133.52;104505;1307;61285;-84
2022/09/15 02:42:25;;;;;;;;;;;;;;;24.55;38.76;100130.80;104463;1309;75710;-84
2022/09/15 02:44:51;;;;;;;;;;;;;;;24.55;38.84;100137.46;104536;1309;61285;-85
2022/09/15 02:47:16;;;;;;;;;;;;;;;24.55;38.81;100142.49;104474;1308;61405;-85
2022/09/15 02:49:42;;;;;;;;;;;;;;;24.54;38.89;100146.13;104448;1309;61297;-88
2022/09/15 02:52:08;;;;;;;;;;;;;;;24.54;38.85;100146.51;104451;1308;61458;-85
2022/09/15 02:54:33;;;;;;;;;;;;;;;24.55;38.87;100149.70;104581;1308;61315;-86
2022/09/15 02:56:59;;;;;;;;;;;;;;;24.54;38.85;100148.48;104512;1308;62447;-84
2022/09/15 02:59:25;;;;;;;;;;;;;;;24.54;38.88;100149.02;104594;1309;61252;-85
2022/09/15 03:01:51;;;;;;;;;;;;;;;24.54;38.89;100150.27;104552;1308;61264;-87
2022/09/15 03:04:17;;;;;;;;;;;;;;;24.54;38.87;100145.42;104461;1309;61182;-84
2022/09/15 03:06:42;;;;;;;;;;;;;;;24.55;38.91;100141.61;104535;1308;62104;-85
2022/09/15 03:09:08;;;;;;;;;;;;;;;24.54;38.89;100147.77;104491;1309;61432;-84
2022/09/15 03:11:34;;;;;;;;;;;;;;;24.54;38.90;100148.30;104556;1308;61255;-85
2022/09/15 03:14:01;;;;;;;;;;;;;;;24.54;38.87;100149.73;104542;1309;72776;-85
2022/09/15 03:16:27;;;;;;;;;;;;;;;24.54;38.98;100151.55;104512;1309;61311;-85
2022/09/15 03:18:53;;;;;;;;;;;;;;;24.54;38.97;100151.39;104541;1308;61259;-85
2022/09/15 03:21:19;;;;;;;;;;;;;;;24.54;39.04;100156.60;104384;1308;61778;-86
2022/09/15 03:23:45;;;;;;;;;;;;;;;24.54;38.93;100156.98;104477;1308;61576;-85
2022/09/15 03:26:10;;;;;;;;;;;;;;;24.53;39.03;100159.16;104396;1311;61354;-87
2022/09/15 03:28:36;;;;;;;;;;;;;;;24.54;39.04;100158.59;104496;1309;61295;-87
2022/09/15 03:31:03;;;;;;;;;;;;;;;24.54;39.14;100160.36;104462;1309;61303;-87
2022/09/15 03:33:29;;;;;;;;;;;;;;;24.54;39.05;100157.88;104384;1311;61284;-85
2022/09/15 03:35:55;;;;;;;;;;;;;;;24.54;39.06;100156.97;104498;1308;61584;-86
2022/09/15 03:38:20;;;;;;;;;;;;;;;24.53;39.13;100152.25;104455;1308;74958;-84
2022/09/15 03:40:59;;;;;;;;;;;;;;;24.53;39.07;100157.05;104513;1309;61278;-85
2022/09/15 03:43:26;;;;;;;;;;;;;;;24.52;39.13;100160.37;104517;1309;61254;-84
2022/09/15 03:45:52;;;;;;;;;;;;;;;24.49;39.10;100154.76;104294;1308;71663;-85
2022/09/15 03:48:18;;;;;;;;;;;;;;;24.47;39.10;100151.19;104450;1309;61546;-85
2022/09/15 03:50:43;;;;;;;;;;;;;;;24.44;39.10;100151.25;104598;1309;61301;-84
2022/09/15 03:53:10;;;;;;;;;;;;;;;24.42;39.08;100155.38;104490;1309;61333;-86
2022/09/15 03:55:36;;;;;;;;;;;;;;;24.41;38.97;100151.54;104502;1309;61286;-85
2022/09/15 03:58:01;;;;;;;;;;;;;;;24.40;39.14;100145.35;104467;1308;61260;-86
2022/09/15 04:00:28;;;;;;;;;;;;;;;24.38;39.07;100138.69;104532;1309;61404;-84
2022/09/15 04:02:56;;;;;;;;;;;;;;;24.37;39.10;100138.80;104474;1309;61147;-85
2022/09/15 04:05:21;;;;;;;;;;;;;;;24.35;38.99;100143.51;104465;1308;62333;-87
2022/09/15 04:07:49;;;;;;;;;;;;;;;24.32;39.04;100150.95;104520;1309;61474;-85
2022/09/15 04:10:14;;;;;;;;;;;;;;;24.30;39.02;100152.02;104616;1309;75263;-85
2022/09/15 04:12:40;;;;;;;;;;;;;;;24.29;39.08;100145.17;104628;1309;61898;-85
2022/09/15 04:15:06;;;;;;;;;;;;;;;24.28;39.04;100145.27;104470;1309;61288;-84
2022/09/15 04:17:33;;;;;;;;;;;;;;;24.26;39.03;100150.05;104098;1308;61333;-84
2022/09/15 04:19:58;;;;;;;;;;;;;;;24.26;39.11;100152.21;104360;1309;61413;-84
2022/09/15 04:22:24;;;;;;;;;;;;;;;24.27;39.09;100149.27;104526;1309;61311;-82
2022/09/15 04:24:50;;;;;;;;;;;;;;;24.27;39.06;100142.61;104337;1309;61259;-84
2022/09/15 04:27:18;;;;;;;;;;;;;;;24.28;39.17;100143.45;104291;1309;61210;-84
2022/09/15 04:29:45;;;;;;;;;;;;;;;24.29;39.05;100143.05;104081;1308;61297;-83
2022/09/15 04:32:12;;;;;;;;;;;;;;;24.28;39.08;100143.63;104325;1309;61854;-83
2022/09/15 04:34:37;;;;;;;;;;;;;;;24.29;39.00;100144.30;104031;1309;61230;-85
2022/09/15 04:37:03;;;;;;;;;;;;;;;24.29;38.99;100140.31;104212;1309;61496;-85
2022/09/15 04:39:31;;;;;;;;;;;;;;;24.29;38.97;100139.94;104332;1308;61302;-84
2022/09/15 04:41:56;;;;;;;;;;;;;;;24.28;39.00;100136.27;104236;1309;61355;-84
2022/09/15 04:44:22;;;;;;;;;;;;;;;24.28;38.90;100133.76;104063;1308;61637;-82
2022/09/15 04:46:47;;;;;;;;;;;;;;;24.27;38.89;100137.26;103806;1309;61175;-83
2022/09/15 04:49:13;;;;;;;;;;;;;;;24.26;38.90;100130.47;103776;1306;61819;-82
2022/09/15 04:51:39;;;;;;;;;;;;;;;24.28;38.91;100126.04;103746;1308;72815;-82
2022/09/15 04:54:14;;;;;;;;;;;;;;;24.30;38.94;100137.86;103775;1308;61209;-81
2022/09/15 04:56:41;;;;;;;;;;;;;;;24.31;39.05;100143.14;103556;1309;60059;-83
2022/09/15 04:59:11;;;;;;;;;;;;;;;24.31;39.09;100143.71;103621;1309;61428;-82
2022/09/15 05:01:36;;;;;;;;;;;;;;;24.29;39.00;100146.98;103506;1308;73960;-83
2022/09/15 05:04:05;;;;;;;;;;;;;;;24.27;39.07;100148.75;103564;1309;61362;-83
2022/09/15 05:06:31;;;;;;;;;;;;;;;24.23;39.01;100149.98;103757;1307;62434;-83
2022/09/15 05:08:57;;;;;;;;;;;;;;;24.21;39.02;100144.15;103777;1308;61384;-83
2022/09/15 05:11:23;;;;;;;;;;;;;;;24.17;39.08;100145.70;103834;1308;61425;-82
2022/09/15 05:13:48;;;;;;;;;;;;;;;24.17;39.20;100144.33;103841;1309;61489;-82
2022/09/15 05:16:14;;;;;;;;;;;;;;;24.17;39.14;100144.09;104087;1308;61254;-82
2022/09/15 05:18:40;;;;;;;;;;;;;;;24.18;39.14;100143.84;103944;1309;61143;-82
2022/09/15 05:21:06;;;;;;;;;;;;;;;24.20;39.07;100144.91;103997;1309;61318;-83
2022/09/15 05:23:32;;;;;;;;;;;;;;;24.21;39.07;100147.83;103957;1308;73116;-82
2022/09/15 05:25:58;;;;;;;;;;;;;;;24.23;39.17;100146.73;104057;1308;61183;-83
2022/09/15 05:28:25;;;;;;;;;;;;;;;24.26;39.05;100151.36;104140;1309;61354;-82
2022/09/15 05:30:51;;;;;;;;;;;;;;;24.28;39.03;100153.89;104211;1308;59880;-82
2022/09/15 05:33:17;;;;;;;;;;;;;;;24.29;38.97;100152.67;104296;1308;61326;-83
2022/09/15 05:35:55;;;;;;;;;;;;;;;24.32;38.94;100157.14;104329;1308;60493;-81
2022/09/15 05:38:21;;;;;;;;;;;;;;;24.32;38.96;100156.71;104254;1308;61403;-83
2022/09/15 05:40:47;;;;;;;;;;;;;;;24.31;38.94;100156.66;104021;1309;61262;-83
2022/09/15 05:43:12;;;;;;;;;;;;;;;24.31;38.97;100161.17;103925;1309;61435;-83
2022/09/15 05:45:40;;;;;;;;;;;;;;;24.31;39.07;100163.80;103957;1309;61361;-84
2022/09/15 05:48:06;;;;;;;;;;;;;;;24.32;39.06;100168.10;104079;1308;61416;-84
2022/09/15 05:50:31;;;;;;;;;;;;;;;24.32;39.05;100168.61;103853;1308;61279;-83
2022/09/15 05:52:57;;;;;;;;;;;;;;;24.32;39.03;100171.31;103849;1308;61333;-83
2022/09/15 05:55:22;;;;;;;;;;;;;;;24.30;39.12;100172.39;103852;1308;59419;-83
2022/09/15 05:57:48;;;;;;;;;;;;;;;24.30;39.32;100166.43;103797;1308;74098;-83
2022/09/15 06:00:14;;;;;;;;;;;;;;;24.31;39.36;100171.76;103628;1311;61584;-83
2022/09/15 06:02:39;;;;;;;;;;;;;;;24.31;39.45;100169.23;103607;1309;61268;-83
2022/09/15 06:05:05;;;;;;;;;;;;;;;24.29;39.39;100165.23;103673;1308;61292;-82
2022/09/15 06:07:31;;;;;;;;;;;;;;;24.28;39.53;100163.94;103674;1308;61289;-82
2022/09/15 06:09:56;;;;;;;;;;;;;;;24.28;39.55;100161.40;103983;1308;61412;-83
2022/09/15 06:12:22;;;;;;;;;;;;;;;24.29;39.53;100162.20;103945;1309;61282;-84
2022/09/15 06:14:49;;;;;;;;;;;;;;;24.29;39.66;100159.88;103842;1311;61387;-83
2022/09/15 06:17:18;;;;;;;;;;;;;;;24.29;39.65;100158.66;104185;1309;72599;-82
2022/09/15 06:19:44;;;;;;;;;;;;;;;24.30;39.66;100155.84;103893;1308;75818;-83
2022/09/15 06:22:10;;;;;;;;;;;;;;;24.31;39.61;100149.24;104092;1308;61415;-82
2022/09/15 06:24:35;;;;;;;;;;;;;;;24.32;39.65;100142.66;104044;1308;61456;-82
2022/09/15 06:27:02;;;;;;;;;;;;;;;24.34;39.63;100138.88;103894;1308;61392;-82
2022/09/15 06:29:27;;;;;;;;;;;;;;;24.35;39.54;100133.77;104068;1308;61318;-82
2022/09/15 06:31:53;;;;;;;;;;;;;;;24.36;39.67;100132.46;104038;1309;61324;-82
2022/09/15 06:34:19;;;;;;;;;;;;;;;24.37;39.63;100131.73;103937;1307;61346;-83
2022/09/15 06:36:45;;;;;;;;;;;;;;;24.40;39.62;100132.98;104064;1309;61429;-83
2022/09/15 06:39:10;;;;;;;;;;;;;;;24.41;39.58;100134.31;103803;1309;61269;-82
2022/09/15 06:41:37;;;;;;;;;;;;;;;24.42;39.68;100129.88;103855;1308;61422;-84
2022/09/15 06:44:02;;;;;;;;;;;;;;;24.43;39.64;100129.08;104003;1309;61304;-85
2022/09/15 06:46:28;;;;;;;;;;;;;;;24.42;39.63;100126.98;104181;1308;61275;-82
2022/09/15 06:48:53;;;;;;;;;;;;;;;24.42;39.66;100130.96;104087;1308;61348;-82
2022/09/15 06:51:23;;;;;;;;;;;;;;;24.43;39.76;100133.02;103510;1309;73167;-83
2022/09/15 06:53:49;;;;;;;;;;;;;;;24.41;39.79;100133.69;103606;1308;74820;-84
2022/09/15 06:56:15;;;;;;;;;;;;;;;24.40;40.14;100132.01;103775;1308;61323;-84
2022/09/15 06:58:41;;;;;;;;;;;;;;;24.41;40.13;100131.07;104396;1308;61320;-82
2022/09/15 07:01:10;;;;;;;;;;;;;;;24.42;40.31;100128.03;103685;1307;61519;-84
2022/09/15 07:03:36;;;;;;;;;;;;;;;24.46;40.43;100128.21;103611;1309;75810;-83
2022/09/15 07:06:03;;;;;;;;;;;;;;;24.49;40.39;100127.44;103789;1309;61342;-82
2022/09/15 07:08:29;;;;;;;;;;;;;;;24.50;40.41;100116.70;103833;1308;61450;-83
2022/09/15 07:10:54;;;;;;;;;;;;;;;24.52;40.47;100113.84;103393;1309;61448;-82
2022/09/15 07:13:20;;;;;;;;;;;;;;;24.52;40.45;100118.61;103667;1308;61147;-82
2022/09/15 07:16:05;;;;;;;;;;;;;;;24.54;40.42;100117.39;103699;1309;61289;-83
2022/09/15 07:18:31;;;;;;;;;;;;;;;24.55;40.68;100119.58;103885;1308;63218;-83
2022/09/15 07:20:57;;;;;;;;;;;;;;;24.56;40.56;100121.73;103832;1309;61316;-84
2022/09/15 07:23:22;;;;;;;;;;;;;;;24.57;40.61;100123.87;103606;1308;61309;-83
2022/09/15 07:25:48;;;;;;;;;;;;;;;24.59;40.53;100125.20;103856;1308;61324;-85
2022/09/15 07:28:14;;;;;;;;;;;;;;;24.59;40.51;100134.68;103833;1309;61294;-83
2022/09/15 07:30:40;;;;;;;;;;;;;;;24.59;40.50;100136.48;103902;1308;61309;-83
2022/09/15 07:33:05;;;;;;;;;;;;;;;24.59;40.48;100138.63;103815;1311;73832;-84
2022/09/15 07:35:31;;;;;;;;;;;;;;;24.60;40.55;100136.42;103995;1309;61299;-84
2022/09/15 07:37:56;;;;;;;;;;;;;;;24.61;40.41;100144.40;103732;1309;61260;-83
2022/09/15 07:40:22;;;;;;;;;;;;;;;24.62;40.56;100141.30;103964;1309;61388;-84
2022/09/15 07:42:49;;;;;;;;;;;;;;;24.61;40.54;100146.21;103946;1308;61415;-82
2022/09/15 07:45:14;;;;;;;;;;;;;;;24.60;40.66;100147.38;103909;1309;61513;-84
2022/09/15 07:47:40;;;;;;;;;;;;;;;24.61;40.58;100140.63;103873;1309;74881;-84
2022/09/15 07:50:05;;;;;;;;;;;;;;;24.62;40.60;100142.35;103874;1308;61296;-82
2022/09/15 07:52:31;;;;;;;;;;;;;;;24.62;40.48;100141.45;103776;1309;61406;-81
2022/09/15 07:54:56;;;;;;;;;;;;;;;24.63;40.48;100143.40;103708;1308;61309;-84
2022/09/15 07:57:22;;;;;;;;;;;;;;;24.63;40.52;100148.83;103852;1308;61437;-82
2022/09/15 07:59:48;;;;;;;;;;;;;;;24.62;40.44;100152.10;103661;1308;77544;-82
2022/09/15 08:02:16;;;;;;;;;;;;;;;24.61;40.46;100153.40;103382;1308;61493;-82
2022/09/15 08:04:45;;;;;;;;;;;;;;;24.62;40.49;100155.87;103476;1309;61301;-83
2022/09/15 08:07:10;;;;;;;;;;;;;;;24.63;40.49;100160.10;103546;1308;61295;-84
2022/09/15 08:09:36;;;;;;;;;;;;;;;24.64;40.49;100165.20;103574;1308;61268;-84
2022/09/15 08:12:01;;;;;;;;;;;;;;;24.66;40.65;100163.41;103690;1308;61321;-84
2022/09/15 08:14:28;;;;;;;;;;;;;;;24.68;40.59;100165.23;103692;1310;59492;-83
2022/09/15 08:16:54;;;;;;;;;;;;;;;24.70;40.72;100159.98;104261;1309;59983;-83
2022/09/15 08:19:20;;;;;;;;;;;;;;;24.73;40.65;100161.85;103927;1308;61311;-82
2022/09/15 08:21:45;;;;;;;;;;;;;;;24.75;40.63;100164.14;104057;1307;75976;-81
2022/09/15 08:24:11;;;;;;;;;;;;;;;24.77;40.70;100160.93;103906;1309;61763;-81
2022/09/15 08:26:37;;;;;;;;;;;;;;;24.78;40.64;100162.05;103831;1308;61414;-83
2022/09/15 08:29:04;;;;;;;;;;;;;;;24.80;40.54;100169.98;103895;1309;59312;-83
2022/09/15 08:31:29;;;;;;;;;;;;;;;24.81;40.36;100168.07;103985;1309;61399;-83
2022/09/15 08:33:55;;;;;;;;;;;;;;;24.82;40.45;100163.80;103749;1309;61410;-83
2022/09/15 08:36:21;;;;;;;;;;;;;;;24.85;40.47;100155.68;103922;1308;59565;-84
2022/09/15 08:38:47;;;;;;;;;;;;;;;24.87;40.50;100156.02;104053;1309;60802;-83
2022/09/15 08:41:12;;;;;;;;;;;;;;;24.87;40.50;100152.73;103913;1308;61374;-81
2022/09/15 08:43:41;;;;;;;;;;;;;;;24.88;40.55;100148.48;104018;1308;61249;-83
2022/09/15 08:46:08;;;;;;;;;;;;;;;24.89;40.42;100145.88;104253;1308;61738;-83
2022/09/15 08:49:00;;;;;;;;;;;;;;;24.90;40.29;100141.05;104028;1309;61465;-83
2022/09/15 08:51:29;;;;;;;;;;;;;;;24.92;40.35;100136.38;103810;1308;72750;-82
2022/09/15 08:54:05;;;;;;;;;;;;;;;24.93;40.17;100136.42;103955;1308;75509;-83
2022/09/15 08:56:30;;;;;;;;;;;;;;;24.95;40.07;100135.05;103905;1308;61552;-82
2022/09/15 08:58:56;;;;;;;;;;;;;;;24.97;40.15;100140.23;104190;1308;61336;-82
2022/09/15 09:01:31;;;;;;;;;;;;;;;25.00;39.95;100134.36;103398;1308;61326;-84
2022/09/15 09:04:00;;;;;;;;;;;;;;;25.04;39.97;100128.70;103569;1308;74995;-82
2022/09/15 09:06:39;;;;;;;;;;;;;;;25.08;39.87;100122.91;103647;1307;61226;-83
2022/09/15 09:09:13;;;;;;;;;;;;;;;25.13;39.82;100119.10;105126;1308;60684;-83
2022/09/15 09:11:53;;;;;;;;;;;;;;;25.17;39.82;100122.80;105207;1308;74148;-83
2022/09/15 09:14:24;;;;;;;;;;;;;;;25.20;39.64;100118.34;105160;1306;66259;-82
2022/09/15 09:16:56;;;;;;;;;;;;;;;25.23;39.52;100115.67;105170;1308;59432;-84
2022/09/15 09:19:29;;;;;;;;;;;;;;;25.26;39.51;100115.90;105359;1306;61975;-83
2022/09/15 09:22:13;;;;;;;;;;;;;;;25.29;39.35;100113.50;105221;1307;63964;-82
2022/09/15 09:24:51;;;;;;;;;;;;;;;25.32;39.35;100111.23;105299;1308;66106;-83
2022/09/15 09:27:19;;;;;;;;;;;;;;;25.35;39.09;100104.66;105241;1308;61522;-83
2022/09/15 09:29:48;;;;;;;;;;;;;;;25.35;39.20;100103.90;105100;1308;59321;-82
2022/09/15 09:32:20;;;;;;;;;;;;;;;25.37;39.31;100104.28;103655;1308;73591;-83
2022/09/15 09:34:53;;;;;;;;;;;;;;;25.39;39.05;100103.92;103929;1308;76334;-82
2022/09/15 09:37:18;;;;;;;;;;;;;;;25.40;38.82;100102.29;104291;1307;61240;-83
2022/09/15 09:39:45;;;;;;;;;;;;;;;25.42;38.80;100104.66;103799;1307;61343;-83
2022/09/15 09:42:14;;;;;;;;;;;;;;;25.43;38.87;100098.23;104066;1306;61364;-83
2022/09/15 09:44:40;;;;;;;;;;;;;;;25.45;38.89;100098.64;104024;1309;75623;-82
2022/09/15 09:47:06;;;;;;;;;;;;;;;25.46;38.69;100092.60;103976;1308;61272;-83
2022/09/15 09:49:33;;;;;;;;;;;;;;;25.46;38.51;100078.16;103786;1308;61416;-83
2022/09/15 09:52:02;;;;;;;;;;;;;;;25.47;38.46;100083.98;103976;1308;61312;-82
2022/09/15 09:54:30;;;;;;;;;;;;;;;25.47;38.42;100077.22;103896;1309;74639;-82
2022/09/15 09:56:56;;;;;;;;;;;;;;;25.45;38.39;100075.13;103792;1309;61271;-82
2022/09/15 09:59:40;;;;;;;;;;;;;;;25.45;38.38;100075.20;103620;1309;61237;-82
2022/09/15 10:02:23;;;;;;;;;;;;;;;25.44;38.42;100068.27;102077;1309;2051929;-83
2022/09/15 10:05:08;;;;;;;;;;;;;;;25.43;38.55;100075.13;103319;1309;76371;-82
2022/09/15 10:07:35;;;;;;;;;;;;;;;25.44;38.57;100069.89;103492;1308;61218;-83
2022/09/15 10:10:01;;;;;;;;;;;;;;;25.45;38.56;100068.86;103476;1308;61308;-86
2022/09/15 10:12:33;;;;;;;;;;;;;;;25.47;38.55;100063.65;103384;1308;61234;-82
2022/09/15 10:14:59;;;;;;;;;;;;;;;25.51;38.46;100062.35;103375;1308;74770;-82
2022/09/15 10:17:26;;;;;;;;;;;;;;;25.56;38.34;100064.70;103618;1308;60266;-83
2022/09/15 10:19:53;;;;;;;;;;;;;;;25.57;38.25;100055.95;103721;1309;61120;-83
2022/09/15 10:22:22;;;;;;;;;;;;;;;25.59;38.26;100062.95;105270;1308;58877;-84
2022/09/15 10:24:49;;;;;;;;;;;;;;;25.61;38.12;100059.46;103995;1308;65996;-83
2022/09/15 10:27:18;;;;;;;;;;;;;;;25.65;37.95;100056.25;103856;1308;61220;-82
2022/09/15 10:29:44;;;;;;;;;;;;;;;25.67;37.95;100054.41;103950;1306;61320;-82
2022/09/15 10:32:28;;;;;;;;;;;;;;;25.67;37.79;100046.86;103716;1308;61319;-83
2022/09/15 10:35:00;;;;;;;;;;;;;;;25.66;37.91;100040.98;104003;1308;74766;-82
2022/09/15 10:37:30;;;;;;;;;;;;;;;25.65;37.96;100040.16;103961;1308;61181;-83
2022/09/15 10:39:57;;;;;;;;;;;;;;;25.64;37.86;100035.29;104024;1308;61446;-82
2022/09/15 10:42:28;;;;;;;;;;;;;;;25.62;37.68;100037.27;104020;1309;72827;-83
2022/09/15 10:45:13;;;;;;;;;;;;;;;25.60;37.66;100032.56;104233;1308;74756;-83
2022/09/15 10:47:49;;;;;;;;;;;;;;;25.59;37.70;100028.02;104364;1307;61188;-82
2022/09/15 10:50:17;;;;;;;;;;;;;;;25.56;37.65;100016.75;104323;1309;61797;-82
2022/09/15 10:52:45;;;;;;;;;;;;;;;25.54;37.73;100017.69;104229;1309;74088;-84
2022/09/15 10:55:30;;;;;;;;;;;;;;;25.53;37.61;100019.09;104280;1308;74675;-81
2022/09/15 10:57:55;;;;;;;;;;;;;;;25.52;37.55;100010.34;104031;1308;61106;-84
2022/09/15 11:00:24;;;;;;;;;;;;;;;25.53;37.50;100008.98;103984;1309;61333;-84
2022/09/15 11:02:54;;;;;;;;;;;;;;;25.52;37.56;100005.98;103459;1309;72956;-82
2022/09/15 11:05:26;;;;;;;;;;;;;;;25.54;37.64;99996.45;103456;1308;75952;-82
2022/09/15 11:08:11;;;;;;;;;;;;;;;25.56;37.56;99999.50;103621;1309;61348;-81
2022/09/15 11:11:06;;;;;;;;;;;;;;;25.55;37.60;99990.52;103760;1308;61619;-83
2022/09/15 11:13:31;;;;;;;;;;;;;;;25.55;37.60;99996.12;103599;1307;72984;-81
2022/09/15 11:16:20;;;;;;;;;;;;;;;25.56;37.49;99994.42;103797;1306;63723;-82
2022/09/15 11:18:45;;;;;;;;;;;;;;;25.57;37.45;99992.52;103365;1314;61084;-82
2022/09/15 11:21:20;;;;;;;;;;;;;;;25.59;37.51;99988.91;103281;1316;61294;-82
2022/09/15 11:24:02;;;;;;;;;;;;;;;25.61;37.21;99988.14;103400;1314;72969;-82
2022/09/15 11:26:35;;;;;;;;;;;;;;;25.63;37.37;99983.27;103294;1315;75954;-82
2022/09/15 11:29:15;;;;;;;;;;;;;;;25.64;37.19;99983.23;103546;1316;62429;-84
2022/09/15 11:31:41;;;;;;;;;;;;;;;25.64;36.96;99988.79;103613;1317;61058;-81
2022/09/15 11:34:10;;;;;;;;;;;;;;;25.64;36.96;99985.52;103510;1316;62842;-83
2022/09/15 11:36:53;;;;;;;;;;;;;;;25.64;36.91;99984.27;103876;1314;74782;-82
2022/09/15 11:39:20;;;;;;;;;;;;;;;25.63;36.90;99983.13;103738;1316;61195;-83
2022/09/15 11:41:55;;;;;;;;;;;;;;;25.63;36.75;99980.05;103720;1316;61304;-83
2022/09/15 11:44:33;;;;;;;;;;;;;;;25.62;36.85;99973.14;103551;1316;74019;-82
2022/09/15 11:47:20;;;;;;;;;;;;;;;25.61;36.80;99974.29;103484;1316;74744;-82
2022/09/15 11:50:07;;;;;;;;;;;;;;;25.60;36.71;99973.98;103592;1316;61593;-83
2022/09/15 11:52:40;;;;;;;;;;;;;;;25.59;36.66;99970.09;104231;1315;61257;-84
2022/09/15 11:55:38;;;;;;;;;;;;;;;25.59;36.68;99966.71;103769;1316;72876;-82
2022/09/15 11:58:15;;;;;;;;;;;;;;;25.58;36.66;99969.64;103818;1309;74852;-82
2022/09/15 12:00:43;;;;;;;;;;;;;;;25.58;36.60;99966.46;103992;1306;61283;-81
2022/09/15 12:03:27;;;;;;;;;;;;;;;25.57;36.65;99967.96;103782;1308;61276;-81
2022/09/15 12:05:57;;;;;;;;;;;;;;;25.58;36.72;99963.26;103984;1306;72601;-81
2022/09/15 12:08:35;;;;;;;;;;;;;;;25.57;36.65;99960.05;103854;1308;74738;-82
2022/09/15 12:11:01;;;;;;;;;;;;;;;25.56;36.55;99959.27;103818;1309;61609;-83
2022/09/15 12:13:27;;;;;;;;;;;;;;;25.56;36.70;99962.58;103988;1308;63495;-84
2022/09/15 12:15:52;;;;;;;;;;;;;;;25.55;36.56;99962.77;104049;1308;61381;-83
2022/09/15 12:18:38;;;;;;;;;;;;;;;25.56;36.75;99961.66;103968;1309;61295;-82
2022/09/15 12:21:07;;;;;;;;;;;;;;;25.56;36.57;99952.64;103650;1314;61231;-83
2022/09/15 12:23:33;;;;;;;;;;;;;;;25.57;36.69;99949.13;103592;1314;61272;-82
2022/09/15 12:26:18;;;;;;;;;;;;;;;25.56;36.76;99950.42;103453;1314;61384;-83
2022/09/15 12:28:46;;;;;;;;;;;;;;;25.56;36.61;99954.40;103478;1314;75848;-82
2022/09/15 12:31:11;;;;;;;;;;;;;;;25.57;36.60;99949.98;103785;1316;61485;-82
2022/09/15 12:33:53;;;;;;;;;;;;;;;25.58;36.50;99951.55;103784;1314;59475;-82
2022/09/15 12:36:38;;;;;;;;;;;;;;;25.57;36.55;99955.95;103928;1316;73892;-84
2022/09/15 12:39:04;;;;;;;;;;;;;;;25.57;36.69;99958.32;103903;1314;74800;-83
2022/09/15 12:41:30;;;;;;;;;;;;;;;25.58;36.66;99961.95;103826;1316;61304;-83